sensor_id;sensor_type;location;lat;lon;timestamp;P1;durP1;ratioP1;P2;durP2;ratioP2
9186;SDS011;7273;48.902;9.410;2022-11-15T00:01:44;250.25;;;85.45;;
9186;SDS011;7273;48.902;9.410;2022-11-15T00:04:09;250.30;;;85.10;;
9186;SDS011;7273;48.902;9.410;2022-11-15T00:06:35;246.65;;;84.18;;
9186;SDS011;7273;48.902;9.410;2022-11-15T00:09:01;246.43;;;84.57;;
9186;SDS011;7273;48.902;9.410;2022-11-15T00:11:27;247.93;;;84.78;;
9186;SDS011;7273;48.902;9.410;2022-11-15T00:13:56;245.15;;;84.18;;
9186;SDS011;7273;48.902;9.410;2022-11-15T00:16:23;251.65;;;84.68;;
9186;SDS011;7273;48.902;9.410;2022-11-15T00:18:49;243.70;;;84.13;;
9186;SDS011;7273;48.902;9.410;2022-11-15T00:21:15;244.90;;;84.55;;
9186;SDS011;7273;48.902;9.410;2022-11-15T00:23:41;256.42;;;87.75;;
9186;SDS011;7273;48.902;9.410;2022-11-15T00:26:08;247.10;;;84.28;;
9186;SDS011;7273;48.902;9.410;2022-11-15T00:28:37;248.95;;;84.82;;
9186;SDS011;7273;48.902;9.410;2022-11-15T00:31:03;251.73;;;85.35;;
9186;SDS011;7273;48.902;9.410;2022-11-15T00:33:30;253.68;;;85.75;;
9186;SDS011;7273;48.902;9.410;2022-11-15T00:36:00;258.67;;;86.90;;
9186;SDS011;7273;48.902;9.410;2022-11-15T00:38:30;257.55;;;86.78;;
9186;SDS011;7273;48.902;9.410;2022-11-15T00:40:59;257.15;;;86.53;;
9186;SDS011;7273;48.902;9.410;2022-11-15T00:43:25;252.95;;;85.65;;
9186;SDS011;7273;48.902;9.410;2022-11-15T00:45:51;254.05;;;86.20;;
9186;SDS011;7273;48.902;9.410;2022-11-15T00:48:17;256.30;;;86.45;;
9186;SDS011;7273;48.902;9.410;2022-11-15T00:50:42;260.30;;;88.80;;
9186;SDS011;7273;48.902;9.410;2022-11-15T00:53:07;264.75;;;90.13;;
9186;SDS011;7273;48.902;9.410;2022-11-15T00:55:33;269.38;;;88.60;;
9186;SDS011;7273;48.902;9.410;2022-11-15T00:57:58;264.67;;;88.22;;
9186;SDS011;7273;48.902;9.410;2022-11-15T01:00:24;273.02;;;89.88;;
9186;SDS011;7273;48.902;9.410;2022-11-15T01:02:49;283.65;;;93.13;;
9186;SDS011;7273;48.902;9.410;2022-11-15T01:05:15;294.52;;;93.75;;
9186;SDS011;7273;48.902;9.410;2022-11-15T01:07:41;307.33;;;96.53;;
9186;SDS011;7273;48.902;9.410;2022-11-15T01:10:07;325.70;;;99.85;;
9186;SDS011;7273;48.902;9.410;2022-11-15T01:12:32;360.48;;;105.13;;
9186;SDS011;7273;48.902;9.410;2022-11-15T01:14:58;412.70;;;119.28;;
9186;SDS011;7273;48.902;9.410;2022-11-15T01:17:23;519.85;;;147.43;;
9186;SDS011;7273;48.902;9.410;2022-11-15T01:19:49;564.83;;;159.85;;
9186;SDS011;7273;48.902;9.410;2022-11-15T01:22:14;572.80;;;162.77;;
9186;SDS011;7273;48.902;9.410;2022-11-15T01:24:40;365.20;;;107.45;;
9186;SDS011;7273;48.902;9.410;2022-11-15T01:27:06;437.08;;;125.05;;
9186;SDS011;7273;48.902;9.410;2022-11-15T01:29:31;564.78;;;162.75;;
9186;SDS011;7273;48.902;9.410;2022-11-15T01:31:57;554.63;;;157.77;;
9186;SDS011;7273;48.902;9.410;2022-11-15T01:34:22;354.35;;;105.20;;
9186;SDS011;7273;48.902;9.410;2022-11-15T01:36:48;352.17;;;105.22;;
9186;SDS011;7273;48.902;9.410;2022-11-15T01:39:13;367.20;;;108.05;;
9186;SDS011;7273;48.902;9.410;2022-11-15T01:41:40;460.70;;;132.05;;
9186;SDS011;7273;48.902;9.410;2022-11-15T01:46:56;574.53;;;164.25;;
9186;SDS011;7273;48.902;9.410;2022-11-15T01:49:24;549.47;;;157.18;;
9186;SDS011;7273;48.902;9.410;2022-11-15T01:54:18;558.35;;;159.35;;
9186;SDS011;7273;48.902;9.410;2022-11-15T01:56:48;495.73;;;141.65;;
9186;SDS011;7273;48.902;9.410;2022-11-15T01:59:18;534.15;;;152.00;;
9186;SDS011;7273;48.902;9.410;2022-11-15T02:01:44;570.90;;;164.70;;
9186;SDS011;7273;48.902;9.410;2022-11-15T02:04:14;569.67;;;163.40;;
9186;SDS011;7273;48.902;9.410;2022-11-15T02:06:44;551.50;;;157.52;;
9186;SDS011;7273;48.902;9.410;2022-11-15T02:09:12;436.95;;;125.55;;
9186;SDS011;7273;48.902;9.410;2022-11-15T02:11:38;479.25;;;136.68;;
9186;SDS011;7273;48.902;9.410;2022-11-15T02:14:03;551.75;;;158.95;;
9186;SDS011;7273;48.902;9.410;2022-11-15T02:19:39;565.72;;;162.38;;
9186;SDS011;7273;48.902;9.410;2022-11-15T02:22:27;436.50;;;126.32;;
9186;SDS011;7273;48.902;9.410;2022-11-15T02:27:53;361.23;;;107.13;;
9186;SDS011;7273;48.902;9.410;2022-11-15T02:30:44;360.48;;;108.43;;
9186;SDS011;7273;48.902;9.410;2022-11-15T02:39:02;365.77;;;108.05;;
9186;SDS011;7273;48.902;9.410;2022-11-15T02:44:23;303.30;;;95.97;;
9186;SDS011;7273;48.902;9.410;2022-11-15T02:46:59;301.50;;;95.88;;
9186;SDS011;7273;48.902;9.410;2022-11-15T02:49:37;295.80;;;94.45;;
9186;SDS011;7273;48.902;9.410;2022-11-15T02:52:06;288.65;;;93.28;;
9186;SDS011;7273;48.902;9.410;2022-11-15T02:54:33;281.77;;;91.85;;
9186;SDS011;7273;48.902;9.410;2022-11-15T02:57:02;281.88;;;92.28;;
9186;SDS011;7273;48.902;9.410;2022-11-15T03:02:36;278.33;;;91.25;;
9186;SDS011;7273;48.902;9.410;2022-11-15T03:13:48;272.02;;;89.95;;
9186;SDS011;7273;48.902;9.410;2022-11-15T03:16:11;277.33;;;91.80;;
9186;SDS011;7273;48.902;9.410;2022-11-15T03:19:06;277.08;;;91.22;;
9186;SDS011;7273;48.902;9.410;2022-11-15T03:21:32;266.05;;;88.97;;
9186;SDS011;7273;48.902;9.410;2022-11-15T03:24:00;265.25;;;88.28;;
9186;SDS011;7273;48.902;9.410;2022-11-15T03:26:31;269.88;;;91.03;;
9186;SDS011;7273;48.902;9.410;2022-11-15T03:29:04;267.50;;;89.50;;
9186;SDS011;7273;48.902;9.410;2022-11-15T03:31:37;263.75;;;87.70;;
9186;SDS011;7273;48.902;9.410;2022-11-15T03:34:35;281.75;;;92.97;;
9186;SDS011;7273;48.902;9.410;2022-11-15T03:36:58;266.75;;;88.97;;
9186;SDS011;7273;48.902;9.410;2022-11-15T03:39:24;265.17;;;88.10;;
9186;SDS011;7273;48.902;9.410;2022-11-15T03:42:02;264.33;;;87.88;;
9186;SDS011;7273;48.902;9.410;2022-11-15T03:44:51;267.70;;;88.50;;
9186;SDS011;7273;48.902;9.410;2022-11-15T03:49:50;273.30;;;91.82;;
9186;SDS011;7273;48.902;9.410;2022-11-15T03:52:21;273.50;;;90.32;;
9186;SDS011;7273;48.902;9.410;2022-11-15T03:54:52;268.80;;;88.82;;
9186;SDS011;7273;48.902;9.410;2022-11-15T03:57:19;268.83;;;89.40;;
9186;SDS011;7273;48.902;9.410;2022-11-15T03:59:45;268.08;;;89.18;;
9186;SDS011;7273;48.902;9.410;2022-11-15T04:02:11;266.45;;;88.50;;
9186;SDS011;7273;48.902;9.410;2022-11-15T04:04:38;264.88;;;88.07;;
9186;SDS011;7273;48.902;9.410;2022-11-15T04:07:03;266.20;;;88.70;;
9186;SDS011;7273;48.902;9.410;2022-11-15T04:09:29;265.95;;;90.45;;
9186;SDS011;7273;48.902;9.410;2022-11-15T04:11:54;263.55;;;87.90;;
9186;SDS011;7273;48.902;9.410;2022-11-15T04:14:20;263.77;;;87.82;;
9186;SDS011;7273;48.902;9.410;2022-11-15T04:16:45;266.23;;;88.35;;
9186;SDS011;7273;48.902;9.410;2022-11-15T04:19:10;267.80;;;88.90;;
9186;SDS011;7273;48.902;9.410;2022-11-15T04:21:55;273.40;;;90.28;;
9186;SDS011;7273;48.902;9.410;2022-11-15T04:24:39;274.00;;;90.38;;
9186;SDS011;7273;48.902;9.410;2022-11-15T04:27:04;271.50;;;89.45;;
9186;SDS011;7273;48.902;9.410;2022-11-15T04:29:29;271.60;;;89.65;;
9186;SDS011;7273;48.902;9.410;2022-11-15T04:32:04;266.70;;;88.78;;
9186;SDS011;7273;48.902;9.410;2022-11-15T04:34:31;267.17;;;90.28;;
9186;SDS011;7273;48.902;9.410;2022-11-15T04:36:56;265.48;;;88.38;;
9186;SDS011;7273;48.902;9.410;2022-11-15T04:39:37;269.45;;;89.07;;
9186;SDS011;7273;48.902;9.410;2022-11-15T04:42:03;259.48;;;86.68;;
9186;SDS011;7273;48.902;9.410;2022-11-15T04:44:28;264.65;;;88.65;;
9186;SDS011;7273;48.902;9.410;2022-11-15T04:46:54;264.83;;;88.30;;
9186;SDS011;7273;48.902;9.410;2022-11-15T04:49:19;260.17;;;87.30;;
9186;SDS011;7273;48.902;9.410;2022-11-15T04:51:45;261.65;;;87.45;;
9186;SDS011;7273;48.902;9.410;2022-11-15T04:54:10;260.55;;;87.43;;
9186;SDS011;7273;48.902;9.410;2022-11-15T04:56:36;259.95;;;89.28;;
9186;SDS011;7273;48.902;9.410;2022-11-15T04:59:01;259.88;;;87.40;;
9186;SDS011;7273;48.902;9.410;2022-11-15T05:01:27;260.70;;;89.28;;
9186;SDS011;7273;48.902;9.410;2022-11-15T05:03:52;259.35;;;87.05;;
9186;SDS011;7273;48.902;9.410;2022-11-15T05:06:36;265.40;;;89.38;;
9186;SDS011;7273;48.902;9.410;2022-11-15T05:09:02;259.13;;;87.43;;
9186;SDS011;7273;48.902;9.410;2022-11-15T05:11:28;259.35;;;87.45;;
9186;SDS011;7273;48.902;9.410;2022-11-15T05:13:54;258.98;;;87.43;;
9186;SDS011;7273;48.902;9.410;2022-11-15T05:16:20;260.42;;;87.65;;
9186;SDS011;7273;48.902;9.410;2022-11-15T05:18:46;261.30;;;87.82;;
9186;SDS011;7273;48.902;9.410;2022-11-15T05:21:12;261.63;;;90.20;;
9186;SDS011;7273;48.902;9.410;2022-11-15T05:23:39;260.48;;;87.15;;
9186;SDS011;7273;48.902;9.410;2022-11-15T05:26:07;257.67;;;87.32;;
9186;SDS011;7273;48.902;9.410;2022-11-15T05:28:33;261.50;;;89.50;;
9186;SDS011;7273;48.902;9.410;2022-11-15T05:31:06;259.48;;;87.18;;
9186;SDS011;7273;48.902;9.410;2022-11-15T05:33:33;262.00;;;88.15;;
9186;SDS011;7273;48.902;9.410;2022-11-15T05:38:37;268.48;;;89.55;;
9186;SDS011;7273;48.902;9.410;2022-11-15T05:41:03;264.48;;;88.45;;
9186;SDS011;7273;48.902;9.410;2022-11-15T05:43:30;258.23;;;86.75;;
9186;SDS011;7273;48.902;9.410;2022-11-15T05:45:58;255.68;;;86.32;;
9186;SDS011;7273;48.902;9.410;2022-11-15T05:48:24;254.45;;;86.10;;
9186;SDS011;7273;48.902;9.410;2022-11-15T05:50:50;258.80;;;87.35;;
9186;SDS011;7273;48.902;9.410;2022-11-15T05:53:17;259.88;;;89.13;;
9186;SDS011;7273;48.902;9.410;2022-11-15T05:55:46;257.70;;;86.90;;
9186;SDS011;7273;48.902;9.410;2022-11-15T05:58:12;253.95;;;86.38;;
9186;SDS011;7273;48.902;9.410;2022-11-15T06:00:37;254.77;;;88.15;;
9186;SDS011;7273;48.902;9.410;2022-11-15T06:03:03;254.65;;;86.03;;
9186;SDS011;7273;48.902;9.410;2022-11-15T06:05:28;257.90;;;87.25;;
9186;SDS011;7273;48.902;9.410;2022-11-15T06:07:57;256.25;;;86.63;;
9186;SDS011;7273;48.902;9.410;2022-11-15T06:10:23;257.77;;;86.80;;
9186;SDS011;7273;48.902;9.410;2022-11-15T06:12:58;254.75;;;86.50;;
9186;SDS011;7273;48.902;9.410;2022-11-15T06:15:25;256.92;;;86.53;;
9186;SDS011;7273;48.902;9.410;2022-11-15T06:17:50;256.75;;;87.22;;
9186;SDS011;7273;48.902;9.410;2022-11-15T06:20:16;254.85;;;86.45;;
9186;SDS011;7273;48.902;9.410;2022-11-15T06:22:42;251.63;;;85.20;;
9186;SDS011;7273;48.902;9.410;2022-11-15T06:25:08;253.43;;;85.95;;
9186;SDS011;7273;48.902;9.410;2022-11-15T06:27:33;251.45;;;85.45;;
9186;SDS011;7273;48.902;9.410;2022-11-15T06:29:59;247.18;;;84.15;;
9186;SDS011;7273;48.902;9.410;2022-11-15T06:32:24;246.98;;;84.32;;
9186;SDS011;7273;48.902;9.410;2022-11-15T06:34:50;250.52;;;85.88;;
9186;SDS011;7273;48.902;9.410;2022-11-15T06:37:15;246.13;;;84.05;;
9186;SDS011;7273;48.902;9.410;2022-11-15T06:39:41;247.73;;;84.68;;
9186;SDS011;7273;48.902;9.410;2022-11-15T06:42:07;247.70;;;84.70;;
9186;SDS011;7273;48.902;9.410;2022-11-15T06:44:33;250.63;;;85.53;;
9186;SDS011;7273;48.902;9.410;2022-11-15T06:46:58;249.68;;;85.45;;
9186;SDS011;7273;48.902;9.410;2022-11-15T06:49:24;252.02;;;85.50;;
9186;SDS011;7273;48.902;9.410;2022-11-15T06:51:49;252.60;;;85.32;;
9186;SDS011;7273;48.902;9.410;2022-11-15T06:54:15;253.57;;;85.38;;
9186;SDS011;7273;48.902;9.410;2022-11-15T06:56:40;259.88;;;87.57;;
9186;SDS011;7273;48.902;9.410;2022-11-15T06:59:05;257.45;;;86.50;;
9186;SDS011;7273;48.902;9.410;2022-11-15T07:01:31;260.30;;;89.15;;
9186;SDS011;7273;48.902;9.410;2022-11-15T07:03:56;261.67;;;87.95;;
9186;SDS011;7273;48.902;9.410;2022-11-15T07:06:22;266.45;;;89.25;;
9186;SDS011;7273;48.902;9.410;2022-11-15T07:08:47;266.55;;;88.05;;
9186;SDS011;7273;48.902;9.410;2022-11-15T07:11:13;270.77;;;91.00;;
9186;SDS011;7273;48.902;9.410;2022-11-15T07:13:39;272.75;;;89.50;;
9186;SDS011;7273;48.902;9.410;2022-11-15T07:16:05;277.08;;;90.65;;
9186;SDS011;7273;48.902;9.410;2022-11-15T07:18:36;285.40;;;94.57;;
9186;SDS011;7273;48.902;9.410;2022-11-15T07:21:03;285.52;;;93.03;;
9186;SDS011;7273;48.902;9.410;2022-11-15T07:23:30;284.98;;;92.32;;
9186;SDS011;7273;48.902;9.410;2022-11-15T07:25:58;288.98;;;93.90;;
9186;SDS011;7273;48.902;9.410;2022-11-15T07:28:25;291.15;;;94.65;;
9186;SDS011;7273;48.902;9.410;2022-11-15T07:30:51;291.13;;;94.00;;
9186;SDS011;7273;48.902;9.410;2022-11-15T07:33:16;296.38;;;95.45;;
9186;SDS011;7273;48.902;9.410;2022-11-15T07:35:42;302.50;;;96.18;;
9186;SDS011;7273;48.902;9.410;2022-11-15T07:38:08;299.17;;;95.88;;
9186;SDS011;7273;48.902;9.410;2022-11-15T07:40:34;314.15;;;98.18;;
9186;SDS011;7273;48.902;9.410;2022-11-15T07:43:03;324.40;;;100.80;;
9186;SDS011;7273;48.902;9.410;2022-11-15T07:45:31;346.42;;;105.13;;
9186;SDS011;7273;48.902;9.410;2022-11-15T07:47:59;348.02;;;105.18;;
9186;SDS011;7273;48.902;9.410;2022-11-15T07:50:25;357.38;;;106.93;;
9186;SDS011;7273;48.902;9.410;2022-11-15T07:52:58;376.45;;;111.85;;
9186;SDS011;7273;48.902;9.410;2022-11-15T07:55:25;416.30;;;120.63;;
9186;SDS011;7273;48.902;9.410;2022-11-15T07:57:52;524.70;;;155.23;;
9186;SDS011;7273;48.902;9.410;2022-11-15T08:00:18;564.05;;;167.80;;
9186;SDS011;7273;48.902;9.410;2022-11-15T08:02:44;581.38;;;174.85;;
9186;SDS011;7273;48.902;9.410;2022-11-15T08:05:10;555.05;;;165.32;;
9186;SDS011;7273;48.902;9.410;2022-11-15T08:07:36;460.85;;;133.63;;
9186;SDS011;7273;48.902;9.410;2022-11-15T08:10:03;552.33;;;163.90;;
9186;SDS011;7273;48.902;9.410;2022-11-15T08:12:30;455.52;;;133.85;;
9186;SDS011;7273;48.902;9.410;2022-11-15T08:14:56;463.58;;;135.52;;
9186;SDS011;7273;48.902;9.410;2022-11-15T08:17:25;532.45;;;157.32;;
9186;SDS011;7273;48.902;9.410;2022-11-15T08:19:50;505.77;;;147.68;;
9186;SDS011;7273;48.902;9.410;2022-11-15T08:22:16;533.60;;;156.93;;
9186;SDS011;7273;48.902;9.410;2022-11-15T08:24:42;464.85;;;134.93;;
9186;SDS011;7273;48.902;9.410;2022-11-15T08:27:08;509.55;;;147.13;;
9186;SDS011;7273;48.902;9.410;2022-11-15T08:29:42;502.73;;;147.25;;
9186;SDS011;7273;48.902;9.410;2022-11-15T08:32:09;412.00;;;121.82;;
9186;SDS011;7273;48.902;9.410;2022-11-15T08:34:34;336.73;;;102.47;;
9186;SDS011;7273;48.902;9.410;2022-11-15T08:37:00;320.85;;;99.35;;
9186;SDS011;7273;48.902;9.410;2022-11-15T08:39:25;306.83;;;96.32;;
9186;SDS011;7273;48.902;9.410;2022-11-15T08:41:51;295.75;;;96.30;;
9186;SDS011;7273;48.902;9.410;2022-11-15T08:44:16;268.25;;;91.18;;
9186;SDS011;7273;48.902;9.410;2022-11-15T08:46:41;254.32;;;86.18;;
9186;SDS011;7273;48.902;9.410;2022-11-15T08:49:07;237.90;;;83.45;;
9186;SDS011;7273;48.902;9.410;2022-11-15T08:51:32;223.75;;;80.00;;
9186;SDS011;7273;48.902;9.410;2022-11-15T08:53:58;216.50;;;78.15;;
9186;SDS011;7273;48.902;9.410;2022-11-15T08:56:23;207.57;;;77.30;;
9186;SDS011;7273;48.902;9.410;2022-11-15T08:58:48;195.93;;;74.75;;
9186;SDS011;7273;48.902;9.410;2022-11-15T09:01:15;190.80;;;73.00;;
9186;SDS011;7273;48.902;9.410;2022-11-15T09:03:42;195.60;;;74.53;;
9186;SDS011;7273;48.902;9.410;2022-11-15T09:06:08;198.55;;;75.40;;
9186;SDS011;7273;48.902;9.410;2022-11-15T09:08:34;187.13;;;74.43;;
9186;SDS011;7273;48.902;9.410;2022-11-15T09:11:02;176.13;;;70.72;;
9186;SDS011;7273;48.902;9.410;2022-11-15T09:13:29;168.70;;;68.47;;
9186;SDS011;7273;48.902;9.410;2022-11-15T09:15:57;163.70;;;67.90;;
9186;SDS011;7273;48.902;9.410;2022-11-15T09:18:24;160.27;;;66.85;;
9186;SDS011;7273;48.902;9.410;2022-11-15T09:20:49;159.80;;;65.10;;
9186;SDS011;7273;48.902;9.410;2022-11-15T09:23:15;160.13;;;67.15;;
9186;SDS011;7273;48.902;9.410;2022-11-15T09:25:40;153.40;;;65.30;;
9186;SDS011;7273;48.902;9.410;2022-11-15T09:28:06;153.15;;;65.53;;
9186;SDS011;7273;48.902;9.410;2022-11-15T09:30:32;148.90;;;63.92;;
9186;SDS011;7273;48.902;9.410;2022-11-15T09:32:58;153.07;;;65.00;;
9186;SDS011;7273;48.902;9.410;2022-11-15T09:35:23;147.93;;;64.10;;
9186;SDS011;7273;48.902;9.410;2022-11-15T09:37:49;167.23;;;69.28;;
9186;SDS011;7273;48.902;9.410;2022-11-15T09:40:14;147.60;;;65.60;;
9186;SDS011;7273;48.902;9.410;2022-11-15T09:42:54;151.25;;;64.40;;
9186;SDS011;7273;48.902;9.410;2022-11-15T09:45:25;156.00;;;65.68;;
9186;SDS011;7273;48.902;9.410;2022-11-15T09:53:29;155.15;;;65.63;;
9186;SDS011;7273;48.902;9.410;2022-11-15T09:56:01;150.82;;;64.00;;
9186;SDS011;7273;48.902;9.410;2022-11-15T10:04:20;151.93;;;63.92;;
9186;SDS011;7273;48.902;9.410;2022-11-15T10:09:36;139.55;;;61.72;;
9186;SDS011;7273;48.902;9.410;2022-11-15T10:12:08;136.27;;;60.50;;
9186;SDS011;7273;48.902;9.410;2022-11-15T10:14:35;132.48;;;59.90;;
9186;SDS011;7273;48.902;9.410;2022-11-15T10:22:19;127.57;;;58.80;;
9186;SDS011;7273;48.902;9.410;2022-11-15T10:24:52;128.82;;;59.35;;
9186;SDS011;7273;48.902;9.410;2022-11-15T10:27:26;131.40;;;59.95;;
9186;SDS011;7273;48.902;9.410;2022-11-15T10:29:51;126.27;;;59.93;;
9186;SDS011;7273;48.902;9.410;2022-11-15T10:32:19;125.95;;;59.05;;
9186;SDS011;7273;48.902;9.410;2022-11-15T10:34:46;110.25;;;54.10;;
9186;SDS011;7273;48.902;9.410;2022-11-15T10:37:12;109.35;;;53.80;;
9186;SDS011;7273;48.902;9.410;2022-11-15T10:39:38;110.47;;;54.60;;
9186;SDS011;7273;48.902;9.410;2022-11-15T10:44:52;115.03;;;55.33;;
9186;SDS011;7273;48.902;9.410;2022-11-15T10:47:21;110.05;;;53.63;;
9186;SDS011;7273;48.902;9.410;2022-11-15T10:49:53;109.57;;;53.60;;
9186;SDS011;7273;48.902;9.410;2022-11-15T10:52:26;110.13;;;53.88;;
9186;SDS011;7273;48.902;9.410;2022-11-15T10:57:29;103.20;;;52.10;;
9186;SDS011;7273;48.902;9.410;2022-11-15T11:00:04;103.32;;;52.13;;
9186;SDS011;7273;48.902;9.410;2022-11-15T11:02:45;106.78;;;52.97;;
9186;SDS011;7273;48.902;9.410;2022-11-15T11:05:27;106.38;;;53.00;;
9186;SDS011;7273;48.902;9.410;2022-11-15T11:08:01;104.93;;;52.65;;
9186;SDS011;7273;48.902;9.410;2022-11-15T11:10:36;103.45;;;52.25;;
9186;SDS011;7273;48.902;9.410;2022-11-15T11:15:48;102.32;;;53.92;;
9186;SDS011;7273;48.902;9.410;2022-11-15T11:18:24;101.20;;;51.15;;
9186;SDS011;7273;48.902;9.410;2022-11-15T11:20:58;101.47;;;51.72;;
9186;SDS011;7273;48.902;9.410;2022-11-15T11:23:53;107.97;;;53.38;;
9186;SDS011;7273;48.902;9.410;2022-11-15T11:34:29;114.35;;;53.47;;
9186;SDS011;7273;48.902;9.410;2022-11-15T11:37:17;108.93;;;53.75;;
9186;SDS011;7273;48.902;9.410;2022-11-15T11:45:47;112.40;;;54.97;;
9186;SDS011;7273;48.902;9.410;2022-11-15T11:48:42;111.60;;;54.53;;
9186;SDS011;7273;48.902;9.410;2022-11-15T11:51:11;106.85;;;53.50;;
9186;SDS011;7273;48.902;9.410;2022-11-15T11:56:39;106.75;;;52.80;;
9186;SDS011;7273;48.902;9.410;2022-11-15T12:02:09;119.93;;;57.88;;
9186;SDS011;7273;48.902;9.410;2022-11-15T12:04:44;102.13;;;52.10;;
9186;SDS011;7273;48.902;9.410;2022-11-15T12:07:23;99.20;;;51.00;;
9186;SDS011;7273;48.902;9.410;2022-11-15T12:15:20;96.82;;;50.60;;
9186;SDS011;7273;48.902;9.410;2022-11-15T12:17:50;93.68;;;49.00;;
9186;SDS011;7273;48.902;9.410;2022-11-15T12:25:20;87.63;;;48.08;;
9186;SDS011;7273;48.902;9.410;2022-11-15T12:28:02;88.95;;;48.10;;
9186;SDS011;7273;48.902;9.410;2022-11-15T12:36:34;91.43;;;48.47;;
9186;SDS011;7273;48.902;9.410;2022-11-15T12:39:08;92.43;;;48.55;;
9186;SDS011;7273;48.902;9.410;2022-11-15T12:41:41;87.32;;;47.10;;
9186;SDS011;7273;48.902;9.410;2022-11-15T12:44:12;88.30;;;47.65;;
9186;SDS011;7273;48.902;9.410;2022-11-15T13:09:58;88.25;;;47.25;;
9186;SDS011;7273;48.902;9.410;2022-11-15T13:17:29;77.88;;;43.88;;
9186;SDS011;7273;48.902;9.410;2022-11-15T13:20:01;84.85;;;45.45;;
9186;SDS011;7273;48.902;9.410;2022-11-15T13:22:29;77.65;;;44.17;;
9186;SDS011;7273;48.902;9.410;2022-11-15T13:25:24;79.85;;;45.10;;
9186;SDS011;7273;48.902;9.410;2022-11-15T13:27:54;80.53;;;45.13;;
9186;SDS011;7273;48.902;9.410;2022-11-15T13:30:27;69.80;;;41.50;;
9186;SDS011;7273;48.902;9.410;2022-11-15T13:32:55;75.50;;;43.25;;
9186;SDS011;7273;48.902;9.410;2022-11-15T13:35:27;71.50;;;41.83;;
9186;SDS011;7273;48.902;9.410;2022-11-15T13:37:56;68.80;;;41.03;;
9186;SDS011;7273;48.902;9.410;2022-11-15T13:40:28;74.25;;;42.83;;
9186;SDS011;7273;48.902;9.410;2022-11-15T13:42:59;73.68;;;42.83;;
9186;SDS011;7273;48.902;9.410;2022-11-15T13:45:25;75.60;;;43.20;;
9186;SDS011;7273;48.902;9.410;2022-11-15T13:47:55;71.38;;;41.88;;
9186;SDS011;7273;48.902;9.410;2022-11-15T13:50:24;79.28;;;44.40;;
9186;SDS011;7273;48.902;9.410;2022-11-15T13:52:53;73.40;;;43.03;;
9186;SDS011;7273;48.902;9.410;2022-11-15T13:55:22;78.25;;;44.83;;
9186;SDS011;7273;48.902;9.410;2022-11-15T13:57:58;76.07;;;43.90;;
9186;SDS011;7273;48.902;9.410;2022-11-15T14:00:37;80.00;;;44.83;;
9186;SDS011;7273;48.902;9.410;2022-11-15T14:03:18;79.57;;;44.88;;
9186;SDS011;7273;48.902;9.410;2022-11-15T14:06:01;82.38;;;45.78;;
9186;SDS011;7273;48.902;9.410;2022-11-15T14:08:31;89.75;;;47.70;;
9186;SDS011;7273;48.902;9.410;2022-11-15T14:11:17;86.25;;;47.45;;
9186;SDS011;7273;48.902;9.410;2022-11-15T14:16:38;94.68;;;49.78;;
9186;SDS011;7273;48.902;9.410;2022-11-15T14:19:06;91.20;;;48.70;;
9186;SDS011;7273;48.902;9.410;2022-11-15T14:21:35;88.45;;;47.90;;
9186;SDS011;7273;48.902;9.410;2022-11-15T14:24:13;92.95;;;48.58;;
9186;SDS011;7273;48.902;9.410;2022-11-15T14:26:43;92.03;;;49.15;;
9186;SDS011;7273;48.902;9.410;2022-11-15T14:32:14;97.47;;;50.17;;
9186;SDS011;7273;48.902;9.410;2022-11-15T14:34:42;93.63;;;49.47;;
9186;SDS011;7273;48.902;9.410;2022-11-15T14:37:12;89.75;;;48.13;;
9186;SDS011;7273;48.902;9.410;2022-11-15T14:39:44;93.30;;;49.25;;
9186;SDS011;7273;48.902;9.410;2022-11-15T14:42:09;89.03;;;48.15;;
9186;SDS011;7273;48.902;9.410;2022-11-15T14:44:34;96.57;;;49.92;;
9186;SDS011;7273;48.902;9.410;2022-11-15T14:47:00;95.22;;;49.70;;
9186;SDS011;7273;48.902;9.410;2022-11-15T14:49:25;95.32;;;48.65;;
9186;SDS011;7273;48.902;9.410;2022-11-15T14:51:51;98.15;;;50.60;;
9186;SDS011;7273;48.902;9.410;2022-11-15T14:54:16;104.30;;;52.17;;
9186;SDS011;7273;48.902;9.410;2022-11-15T14:56:42;104.60;;;52.65;;
9186;SDS011;7273;48.902;9.410;2022-11-15T14:59:07;101.25;;;51.55;;
9186;SDS011;7273;48.902;9.410;2022-11-15T15:01:33;107.70;;;53.88;;
9186;SDS011;7273;48.902;9.410;2022-11-15T15:03:58;107.35;;;52.92;;
9186;SDS011;7273;48.902;9.410;2022-11-15T15:06:24;112.65;;;54.70;;
9186;SDS011;7273;48.902;9.410;2022-11-15T15:08:50;113.45;;;55.33;;
9186;SDS011;7273;48.902;9.410;2022-11-15T15:11:25;112.57;;;54.70;;
9186;SDS011;7273;48.902;9.410;2022-11-15T15:13:52;112.53;;;54.58;;
9186;SDS011;7273;48.902;9.410;2022-11-15T15:16:21;115.70;;;55.70;;
9186;SDS011;7273;48.902;9.410;2022-11-15T15:18:46;125.53;;;58.25;;
9186;SDS011;7273;48.902;9.410;2022-11-15T15:23:48;123.85;;;58.00;;
9186;SDS011;7273;48.902;9.410;2022-11-15T15:26:13;126.35;;;58.35;;
9186;SDS011;7273;48.902;9.410;2022-11-15T15:28:39;133.55;;;60.45;;
9186;SDS011;7273;48.902;9.410;2022-11-15T15:31:05;129.77;;;59.53;;
9186;SDS011;7273;48.902;9.410;2022-11-15T15:33:31;135.20;;;60.42;;
9186;SDS011;7273;48.902;9.410;2022-11-15T15:35:57;135.48;;;61.83;;
9186;SDS011;7273;48.902;9.410;2022-11-15T15:38:22;140.30;;;61.83;;
9186;SDS011;7273;48.902;9.410;2022-11-15T15:40:48;133.80;;;60.22;;
9186;SDS011;7273;48.902;9.410;2022-11-15T15:43:13;137.27;;;61.33;;
9186;SDS011;7273;48.902;9.410;2022-11-15T15:45:39;141.70;;;62.15;;
9186;SDS011;7273;48.902;9.410;2022-11-15T15:48:09;135.45;;;60.40;;
9186;SDS011;7273;48.902;9.410;2022-11-15T15:50:37;143.30;;;63.03;;
9186;SDS011;7273;48.902;9.410;2022-11-15T15:53:03;142.98;;;62.15;;
9186;SDS011;7273;48.902;9.410;2022-11-15T15:55:29;143.02;;;62.72;;
9186;SDS011;7273;48.902;9.410;2022-11-15T15:57:55;144.07;;;62.50;;
9186;SDS011;7273;48.902;9.410;2022-11-15T16:00:22;145.95;;;63.35;;
9186;SDS011;7273;48.902;9.410;2022-11-15T16:02:49;147.98;;;64.18;;
9186;SDS011;7273;48.902;9.410;2022-11-15T16:05:16;149.98;;;66.15;;
9186;SDS011;7273;48.902;9.410;2022-11-15T16:07:42;146.82;;;62.70;;
9186;SDS011;7273;48.902;9.410;2022-11-15T16:10:14;151.18;;;64.53;;
9186;SDS011;7273;48.902;9.410;2022-11-15T16:12:43;154.77;;;65.05;;
9186;SDS011;7273;48.902;9.410;2022-11-15T16:15:08;151.65;;;64.32;;
9186;SDS011;7273;48.902;9.410;2022-11-15T16:17:35;152.80;;;64.43;;
9186;SDS011;7273;48.902;9.410;2022-11-15T16:20:04;154.32;;;65.07;;
9186;SDS011;7273;48.902;9.410;2022-11-15T16:22:29;154.95;;;65.57;;
9186;SDS011;7273;48.902;9.410;2022-11-15T16:24:55;154.30;;;65.07;;
9186;SDS011;7273;48.902;9.410;2022-11-15T16:27:21;162.70;;;68.30;;
9186;SDS011;7273;48.902;9.410;2022-11-15T16:29:47;158.13;;;67.20;;
9186;SDS011;7273;48.902;9.410;2022-11-15T16:32:13;155.80;;;65.72;;
9186;SDS011;7273;48.902;9.410;2022-11-15T16:34:40;156.25;;;67.88;;
9186;SDS011;7273;48.902;9.410;2022-11-15T16:37:05;157.68;;;66.20;;
9186;SDS011;7273;48.902;9.410;2022-11-15T16:39:40;157.07;;;65.88;;
9186;SDS011;7273;48.902;9.410;2022-11-15T16:42:05;156.88;;;65.75;;
9186;SDS011;7273;48.902;9.410;2022-11-15T16:44:31;154.88;;;65.00;;
9186;SDS011;7273;48.902;9.410;2022-11-15T16:46:56;158.80;;;66.35;;
9186;SDS011;7273;48.902;9.410;2022-11-15T16:49:22;158.35;;;66.28;;
9186;SDS011;7273;48.902;9.410;2022-11-15T16:51:48;163.90;;;67.85;;
9186;SDS011;7273;48.902;9.410;2022-11-15T16:54:14;159.98;;;66.30;;
9186;SDS011;7273;48.902;9.410;2022-11-15T16:56:40;170.32;;;67.57;;
9186;SDS011;7273;48.902;9.410;2022-11-15T16:59:06;167.80;;;68.10;;